createdAt,value
2022-12-18T00:01:23.575Z,100075.88
2022-12-18T00:03:29.660Z,100079.00
2022-12-18T00:05:34.776Z,100082.81
2022-12-18T00:07:43.255Z,100086.53
2022-12-18T00:09:49.144Z,100091.69
2022-12-18T00:11:54.200Z,100090.59
2022-12-18T00:14:02.285Z,100088.31
2022-12-18T00:16:08.980Z,100091.25
2022-12-18T00:18:18.951Z,100094.97
2022-12-18T00:20:27.117Z,100082.75
2022-12-18T00:22:32.149Z,100085.84
2022-12-18T00:24:39.731Z,100088.25
2022-12-18T00:26:44.693Z,100085.59
2022-12-18T00:28:50.618Z,100100.22
2022-12-18T00:31:02.948Z,100098.56
2022-12-18T00:33:08.063Z,100093.50
2022-12-18T00:35:13.304Z,100093.72
2022-12-18T00:37:20.340Z,100095.38
2022-12-18T00:39:29.801Z,100091.44
2022-12-18T00:41:50.296Z,100090.97
2022-12-18T00:43:55.553Z,100103.72
2022-12-18T00:46:00.583Z,100102.41
2022-12-18T00:48:06.727Z,100103.97
2022-12-18T00:50:13.728Z,100100.75
2022-12-18T00:52:19.961Z,100093.81
2022-12-18T00:54:25.259Z,100095.16
2022-12-18T00:56:30.622Z,100091.81
2022-12-18T00:58:38.659Z,100092.50
2022-12-18T01:00:44.005Z,100100.44
2022-12-18T01:02:49.977Z,100105.22
2022-12-18T01:04:56.380Z,100115.63
2022-12-18T01:07:01.461Z,100109.78
2022-12-18T01:09:06.932Z,100104.50
2022-12-18T01:11:18.528Z,100104.22
2022-12-18T01:13:23.844Z,100103.31
2022-12-18T01:15:31.868Z,100106.75
2022-12-18T01:17:37.993Z,100118.66
2022-12-18T01:19:43.015Z,100120.81
2022-12-18T01:21:49.005Z,100127.38
2022-12-18T01:23:56.985Z,100130.16
2022-12-18T01:26:07.494Z,100137.06
2022-12-18T01:28:14.075Z,100134.13
2022-12-18T01:30:19.944Z,100132.69
2022-12-18T01:32:27.509Z,100135.97
2022-12-18T01:34:32.558Z,100134.31
2022-12-18T01:36:40.527Z,100132.28
2022-12-18T01:38:45.733Z,100134.75
2022-12-18T01:40:50.724Z,100126.91
2022-12-18T01:42:57.497Z,100125.25
2022-12-18T01:45:26.849Z,100125.19
2022-12-18T01:47:41.590Z,100125.78
2022-12-18T01:49:46.899Z,100135.16
2022-12-18T01:51:51.938Z,100128.28
2022-12-18T01:53:57.159Z,100140.28
2022-12-18T01:56:03.733Z,100128.94
2022-12-18T01:58:09.394Z,100130.03
2022-12-18T02:00:20.540Z,100122.34
2022-12-18T02:02:26.432Z,100129.78
2022-12-18T02:04:34.193Z,100127.19
2022-12-18T02:06:45.040Z,100131.63
2022-12-18T02:09:06.032Z,100117.31
2022-12-18T02:11:19.202Z,100112.66
2022-12-18T02:13:35.929Z,100120.50
2022-12-18T02:15:48.402Z,100118.66
2022-12-18T02:18:00.739Z,100115.06
2022-12-18T02:20:16.121Z,100114.47
2022-12-18T02:22:35.800Z,100116.06
2022-12-18T02:25:02.459Z,100117.44
2022-12-18T02:27:13.824Z,100119.75
2022-12-18T02:29:28.423Z,100117.09
2022-12-18T02:31:40.264Z,100117.38
2022-12-18T02:33:47.762Z,100114.50
2022-12-18T02:35:55.181Z,100111.38
2022-12-18T02:38:01.200Z,100105.13
2022-12-18T02:40:12.085Z,100111.09
2022-12-18T02:42:21.315Z,100112.47
2022-12-18T02:44:27.391Z,100119.13
2022-12-18T02:46:41.597Z,100111.84
2022-12-18T02:48:52.913Z,100122.91
2022-12-18T02:51:07.743Z,100114.97
2022-12-18T02:53:21.272Z,100122.59
2022-12-18T02:55:42.418Z,100121.72
2022-12-18T02:57:57.748Z,100128.84
2022-12-18T03:00:13.895Z,100127.25
2022-12-18T03:02:27.437Z,100135.84
2022-12-18T03:04:41.983Z,100137.81
2022-12-18T03:06:52.936Z,100127.25
2022-12-18T03:09:04.728Z,100126.19
2022-12-18T03:11:14.066Z,100130.34
2022-12-18T03:13:33.736Z,100128.53
2022-12-18T03:15:43.707Z,100142.66
2022-12-18T03:18:00.009Z,100148.94
2022-12-18T03:20:13.583Z,100150.09
2022-12-18T03:22:21.696Z,100136.38
2022-12-18T03:24:34.242Z,100123.94
2022-12-18T03:26:43.896Z,100114.34
2022-12-18T03:28:59.983Z,100119.41
2022-12-18T03:31:09.212Z,100114.56
2022-12-18T03:33:20.669Z,100124.59
2022-12-18T03:35:35.049Z,100119.81
2022-12-18T03:37:40.701Z,100119.06
2022-12-18T03:39:46.868Z,100119.06
2022-12-18T03:42:00.384Z,100123.09
2022-12-18T03:44:27.281Z,100120.69
2022-12-18T03:46:44.451Z,100119.78
2022-12-18T03:48:56.151Z,100123.47
2022-12-18T03:51:05.640Z,100123.19
2022-12-18T03:53:27.067Z,100132.56
2022-12-18T03:55:37.121Z,100115.97
2022-12-18T03:57:46.297Z,100108.50
2022-12-18T04:00:00.587Z,100109.88
2022-12-18T04:02:20.974Z,100104.94
2022-12-18T04:04:28.410Z,100116.50
2022-12-18T04:06:35.540Z,100115.94
2022-12-18T04:08:41.143Z,100127.38
2022-12-18T04:10:49.528Z,100123.38
2022-12-18T04:12:54.763Z,100118.25
2022-12-18T04:15:02.816Z,100115.66
2022-12-18T04:17:08.419Z,100121.81
2022-12-18T04:19:13.472Z,100131.44
2022-12-18T04:21:20.892Z,100109.94
2022-12-18T04:23:28.207Z,100112.28
2022-12-18T04:25:36.199Z,100108.59
2022-12-18T04:27:45.801Z,100114.50
2022-12-18T04:29:51.754Z,100122.59
2022-12-18T04:32:00.464Z,100128.84
2022-12-18T04:34:08.454Z,100120.56
2022-12-18T04:36:19.624Z,100123.19
2022-12-18T04:38:26.194Z,100126.31
2022-12-18T04:40:41.691Z,100113.78
2022-12-18T04:42:53.924Z,100108.09
2022-12-18T04:44:59.584Z,100111.50
2022-12-18T04:47:08.498Z,100110.66
2022-12-18T04:49:14.121Z,100113.44
2022-12-18T04:51:25.959Z,100115.75
2022-12-18T04:53:32.355Z,100119.69
2022-12-18T04:55:37.657Z,100115.97
2022-12-18T04:57:43.046Z,100114.25
2022-12-18T04:59:48.404Z,100128.84
2022-12-18T05:01:53.401Z,100133.69
2022-12-18T05:04:01.647Z,100130.56
2022-12-18T05:06:08.051Z,100135.44
2022-12-18T05:08:13.415Z,100140.13
2022-12-18T05:10:18.420Z,100133.63
2022-12-18T05:12:29.242Z,100125.16
2022-12-18T05:14:34.188Z,100117.66
2022-12-18T05:16:39.220Z,100122.91
2022-12-18T05:18:44.753Z,100119.19
2022-12-18T05:20:53.797Z,100123.19
2022-12-18T05:22:59.580Z,100137.97
2022-12-18T05:25:04.606Z,100132.00
2022-12-18T05:27:09.503Z,100138.25
2022-12-18T05:29:15.362Z,100142.25
2022-12-18T05:31:20.806Z,100138.97
2022-12-18T05:33:28.293Z,100138.41
2022-12-18T05:35:33.574Z,100139.28
2022-12-18T05:37:43.502Z,100141.81
2022-12-18T05:39:48.733Z,100145.38
2022-12-18T05:41:53.692Z,100150.50
2022-12-18T05:43:58.777Z,100159.72
2022-12-18T05:46:08.593Z,100158.75
2022-12-18T05:48:17.320Z,100159.59
2022-12-18T05:50:22.276Z,100153.47
2022-12-18T05:52:27.564Z,100148.22
2022-12-18T05:54:35.280Z,100156.19
2022-12-18T05:56:44.167Z,100154.19
2022-12-18T05:58:56.568Z,100156.31
2022-12-18T06:01:02.045Z,100158.03
2022-12-18T06:03:07.133Z,100167.28
2022-12-18T06:05:12.343Z,100157.06
2022-12-18T06:07:17.250Z,100163.16
2022-12-18T06:09:22.161Z,100161.59
2022-12-18T06:11:30.837Z,100169.38
2022-12-18T06:13:36.228Z,100177.53
2022-12-18T06:15:41.629Z,100173.25
2022-12-18T06:17:46.992Z,100174.09
2022-12-18T06:19:51.911Z,100172.13
2022-12-18T06:21:58.791Z,100172.38
2022-12-18T06:24:04.638Z,100167.53
2022-12-18T06:26:11.618Z,100170.41
2022-12-18T06:28:19.269Z,100154.47
2022-12-18T06:30:24.689Z,100149.19
2022-12-18T06:32:30.121Z,100145.94
2022-12-18T06:34:36.357Z,100141.38
2022-12-18T06:36:41.840Z,100138.50
2022-12-18T06:38:48.156Z,100137.63
2022-12-18T06:40:53.044Z,100147.13
2022-12-18T06:42:58.675Z,100145.88
2022-12-18T06:45:07.564Z,100155.56
2022-12-18T06:47:12.696Z,100156.09
2022-12-18T06:49:17.899Z,100156.88
2022-12-18T06:51:25.134Z,100158.44
2022-12-18T06:53:30.524Z,100156.97
2022-12-18T06:55:36.161Z,100161.56
2022-12-18T06:57:41.796Z,100159.00
2022-12-18T06:59:46.704Z,100168.97
2022-12-18T07:01:54.687Z,100165.41
2022-12-18T07:04:01.692Z,100169.22
2022-12-18T07:06:07.270Z,100165.84
2022-12-18T07:08:12.731Z,100169.97
2022-12-18T07:10:17.693Z,100170.13
2022-12-18T07:12:22.797Z,100165.28
2022-12-18T07:14:28.110Z,100165.13
2022-12-18T07:16:33.579Z,100174.38
2022-12-18T07:18:41.145Z,100170.69
2022-12-18T07:20:46.167Z,100179.50
2022-12-18T07:22:56.248Z,100185.19
2022-12-18T07:25:01.431Z,100184.03
2022-12-18T07:27:06.578Z,100189.19
2022-12-18T07:29:13.321Z,100186.31
2022-12-18T07:31:23.291Z,100190.44
2022-12-18T07:33:28.581Z,100192.31
2022-12-18T07:35:37.110Z,100193.72
2022-12-18T07:37:42.327Z,100191.56
2022-12-18T07:39:47.903Z,100193.16
2022-12-18T07:42:07.647Z,100199.13
2022-12-18T07:44:13.941Z,100204.97
2022-12-18T07:46:20.320Z,100200.56
2022-12-18T07:48:25.601Z,100201.28
2022-12-18T07:50:30.500Z,100205.09
2022-12-18T07:52:38.016Z,100205.66
2022-12-18T07:54:43.531Z,100207.06
2022-12-18T07:56:48.502Z,100205.81
2022-12-18T07:58:53.929Z,100198.56
2022-12-18T08:01:07.054Z,100196.56
2022-12-18T08:03:14.411Z,100197.16
2022-12-18T08:05:19.839Z,100200.50
2022-12-18T08:07:24.785Z,100204.91
2022-12-18T08:09:32.279Z,100198.53
2022-12-18T08:11:37.230Z,100196.19
2022-12-18T08:13:42.466Z,100197.25
2022-12-18T08:15:47.614Z,100189.56
2022-12-18T08:17:52.590Z,100191.56
2022-12-18T08:19:57.519Z,100183.84
2022-12-18T08:22:02.906Z,100182.91
2022-12-18T08:24:09.173Z,100175.28
2022-12-18T08:26:17.595Z,100172.47
2022-12-18T08:28:23.048Z,100176.16
2022-12-18T08:30:28.102Z,100176.13
2022-12-18T08:32:34.393Z,100177.34
2022-12-18T08:34:39.719Z,100164.50
2022-12-18T08:36:44.694Z,100159.63
2022-12-18T08:38:50.267Z,100154.84
2022-12-18T08:41:03.022Z,100160.16
2022-12-18T08:43:25.407Z,100154.97
2022-12-18T08:45:31.625Z,100153.84
2022-12-18T08:47:36.564Z,100144.22
2022-12-18T08:49:41.700Z,100143.72
2022-12-18T08:51:47.116Z,100139.34
2022-12-18T08:53:52.366Z,100135.97
2022-12-18T08:55:57.537Z,100137.59
2022-12-18T08:58:02.482Z,100141.38
2022-12-18T09:00:14.476Z,100138.00
2022-12-18T09:02:20.341Z,100134.84
2022-12-18T09:04:25.463Z,100132.31
2022-12-18T09:06:31.015Z,100138.00
2022-12-18T09:08:39.635Z,100132.78
2022-12-18T09:10:50.551Z,100137.78
2022-12-18T09:12:57.136Z,100133.16
2022-12-18T09:15:02.796Z,100141.81
2022-12-18T09:17:10.591Z,100132.19
2022-12-18T09:19:15.785Z,100125.16
2022-12-18T09:21:24.439Z,100123.91
2022-12-18T09:23:29.377Z,100117.84
2022-12-18T09:25:36.811Z,100105.66
2022-12-18T09:27:41.739Z,100107.13
2022-12-18T09:29:46.821Z,100112.22
2022-12-18T09:31:52.700Z,100098.47
2022-12-18T09:34:01.564Z,100098.69
2022-12-18T09:36:08.773Z,100094.59
2022-12-18T09:38:17.762Z,100093.47
2022-12-18T09:40:27.256Z,100094.56
2022-12-18T09:42:32.951Z,100094.13
2022-12-18T09:44:45.907Z,100093.13
2022-12-18T09:46:58.836Z,100091.72
2022-12-18T09:49:14.008Z,100093.91
2022-12-18T09:51:22.488Z,100094.34
2022-12-18T09:53:34.346Z,100087.41
2022-12-18T09:55:43.938Z,100082.22
2022-12-18T09:57:59.514Z,100093.34
2022-12-18T10:00:17.257Z,100107.94
2022-12-18T10:02:25.326Z,100110.75
2022-12-18T10:04:35.700Z,100111.22
2022-12-18T10:06:52.449Z,100108.66
2022-12-18T10:09:07.632Z,100108.91
2022-12-18T10:11:33.680Z,100103.59
2022-12-18T10:13:44.992Z,100116.16
2022-12-18T10:16:05.287Z,100116.59
2022-12-18T10:18:27.280Z,100125.72
2022-12-18T10:20:45.387Z,100104.56
2022-12-18T10:23:01.696Z,100099.19
2022-12-18T10:25:17.764Z,100103.28
2022-12-18T10:27:28.605Z,100104.03
2022-12-18T10:29:33.700Z,100095.94
2022-12-18T10:31:38.649Z,100093.84
2022-12-18T10:33:44.534Z,100082.53
2022-12-18T10:35:54.501Z,100091.38
2022-12-18T10:38:26.662Z,100093.25
2022-12-18T10:40:31.768Z,100085.97
2022-12-18T10:42:36.872Z,100091.22
2022-12-18T10:44:41.792Z,100087.25
2022-12-18T10:46:47.754Z,100085.06
2022-12-18T10:48:58.147Z,100084.34
2022-12-18T10:51:13.072Z,100082.50
2022-12-18T10:53:25.402Z,100071.63
2022-12-18T10:55:36.763Z,100063.56
2022-12-18T10:57:44.055Z,100056.44
2022-12-18T10:59:58.375Z,100045.91
2022-12-18T11:02:03.792Z,100049.28
2022-12-18T11:04:13.206Z,100045.94
2022-12-18T11:06:25.706Z,100042.81
2022-12-18T11:08:30.626Z,100042.75
2022-12-18T11:10:37.743Z,100042.38
2022-12-18T11:12:43.466Z,100041.16
2022-12-18T11:14:52.249Z,100047.78
2022-12-18T11:19:35.510Z,100047.34
2022-12-18T11:21:46.983Z,100056.34
2022-12-18T11:23:56.021Z,100047.34
2022-12-18T11:26:04.404Z,100043.59
2022-12-18T11:28:39.592Z,100032.28
2022-12-18T11:30:44.770Z,100021.88
2022-12-18T11:32:52.638Z,100014.16
2022-12-18T11:35:06.762Z,100013.00
2022-12-18T11:37:20.140Z,100007.84
2022-12-18T11:39:34.983Z,99999.13
2022-12-18T11:42:04.203Z,99994.25
2022-12-18T11:44:12.780Z,99999.16
2022-12-18T11:46:22.920Z,99990.53
2022-12-18T11:48:33.555Z,99996.41
2022-12-18T11:50:50.425Z,99995.56
2022-12-18T11:53:02.813Z,99983.03
2022-12-18T11:55:17.763Z,99987.06
2022-12-18T11:57:38.168Z,99994.44
2022-12-18T11:59:57.141Z,99985.75
2022-12-18T12:02:29.011Z,99986.22
2022-12-18T12:05:04.632Z,99993.41
2022-12-18T12:07:27.746Z,99995.44
2022-12-18T12:09:44.777Z,99983.06
2022-12-18T12:12:02.359Z,99988.97
2022-12-18T12:14:28.663Z,99992.03
2022-12-18T12:16:41.239Z,99972.84
2022-12-18T12:19:03.859Z,99964.69
2022-12-18T12:21:16.104Z,99962.78
2022-12-18T12:23:32.444Z,99954.25
2022-12-18T12:25:45.941Z,99945.91
2022-12-18T12:28:04.551Z,99949.97
2022-12-18T12:30:13.110Z,99951.81
2022-12-18T12:32:37.975Z,99952.25
2022-12-18T12:35:00.951Z,99953.66
2022-12-18T12:37:27.052Z,99954.28
2022-12-18T12:39:38.085Z,99956.72
2022-12-18T12:41:59.956Z,99950.41
2022-12-18T12:44:10.728Z,99941.06
2022-12-18T12:46:19.984Z,99936.44
2022-12-18T12:48:40.082Z,99927.38
2022-12-18T12:50:45.747Z,99927.16
2022-12-18T12:52:55.453Z,99904.38
2022-12-18T12:55:02.122Z,99900.00
2022-12-18T12:57:15.907Z,99903.44
2022-12-18T12:59:35.077Z,99909.56
2022-12-18T13:01:50.963Z,99900.44
2022-12-18T13:04:07.860Z,99903.25
2022-12-18T13:06:21.816Z,99907.47
2022-12-18T13:08:30.891Z,99905.50
2022-12-18T13:10:40.861Z,99903.13
2022-12-18T13:12:57.745Z,99899.34
2022-12-18T13:15:24.318Z,99906.78
2022-12-18T13:17:34.595Z,99914.22
2022-12-18T13:19:39.732Z,99918.59
2022-12-18T13:21:45.281Z,99924.22
2022-12-18T13:23:51.099Z,99941.63
2022-12-18T13:25:57.819Z,99940.13
2022-12-18T13:28:13.697Z,99936.94
2022-12-18T13:30:49.574Z,99929.75
2022-12-18T13:34:24.563Z,99949.50
2022-12-18T13:36:34.447Z,99943.06
2022-12-18T13:38:43.104Z,99943.34
2022-12-18T13:41:01.051Z,99935.13
2022-12-18T13:43:40.536Z,99938.81
2022-12-18T13:45:51.445Z,99937.66
2022-12-18T13:47:57.155Z,99940.28
2022-12-18T13:50:03.274Z,99940.13
2022-12-18T13:52:22.015Z,99929.97
2022-12-18T13:54:34.533Z,99927.69
2022-12-18T13:56:48.645Z,99940.13
2022-12-18T13:59:18.549Z,99933.44
2022-12-18T14:01:27.228Z,99942.41
2022-12-18T14:03:34.292Z,99935.19
2022-12-18T14:05:44.348Z,99934.19
2022-12-18T14:07:50.334Z,99939.16
2022-12-18T14:12:43.962Z,99943.97
2022-12-18T14:14:55.632Z,99940.56
2022-12-18T14:17:02.749Z,99938.56
2022-12-18T14:19:17.884Z,99948.19
2022-12-18T14:23:40.118Z,99946.59
2022-12-18T14:25:50.714Z,99941.75
2022-12-18T14:28:06.486Z,99946.19
2022-12-18T14:30:34.080Z,99957.63
2022-12-18T14:32:40.323Z,99952.03
2022-12-18T14:34:45.342Z,99949.06
2022-12-18T14:36:57.198Z,99949.00
2022-12-18T14:39:03.213Z,99946.13
2022-12-18T14:41:13.660Z,99943.19
2022-12-18T14:43:18.717Z,99939.47
2022-12-18T14:45:44.880Z,99940.25
2022-12-18T14:47:50.010Z,99949.91
2022-12-18T14:49:55.068Z,99944.50
2022-12-18T14:52:05.919Z,99942.28
2022-12-18T14:54:21.260Z,99945.34
2022-12-18T14:56:29.541Z,99946.00
2022-12-18T14:58:34.647Z,99948.22
2022-12-18T15:00:46.232Z,99949.91
2022-12-18T15:02:56.248Z,99948.56
2022-12-18T15:05:12.943Z,99941.44
2022-12-18T15:07:20.819Z,99939.22
2022-12-18T15:09:28.852Z,99943.66
2022-12-18T15:11:47.173Z,99952.56
2022-12-18T15:13:52.255Z,99952.97
2022-12-18T15:16:02.403Z,99951.44
2022-12-18T15:18:14.952Z,99946.69
2022-12-18T15:20:19.955Z,99956.97
2022-12-18T15:22:30.812Z,99960.19
2022-12-18T15:24:36.629Z,99961.56
2022-12-18T15:26:42.293Z,99958.53
2022-12-18T15:28:51.301Z,99945.94
2022-12-18T15:31:23.582Z,99959.34
2022-12-18T15:33:33.481Z,99966.53
2022-12-18T15:35:42.411Z,99957.09
2022-12-18T15:37:50.813Z,99959.91
2022-12-18T15:39:55.796Z,99948.78
2022-12-18T15:42:13.311Z,99946.06
2022-12-18T15:44:28.365Z,99941.53
2022-12-18T15:46:35.948Z,99948.03
2022-12-18T15:48:44.763Z,99945.53
2022-12-18T15:50:49.913Z,99941.88
2022-12-18T15:52:58.530Z,99947.19
2022-12-18T15:55:16.065Z,99940.94
2022-12-18T15:57:27.562Z,99930.97
2022-12-18T15:59:32.589Z,99935.69
2022-12-18T16:01:42.655Z,99932.66
2022-12-18T16:03:48.145Z,99936.22
2022-12-18T16:05:54.015Z,99931.25
2022-12-18T16:08:00.334Z,99930.47
2022-12-18T16:10:05.807Z,99930.63
2022-12-18T16:12:18.575Z,99931.19
2022-12-18T16:14:27.608Z,99929.13
2022-12-18T16:16:32.623Z,99926.09
2022-12-18T16:18:40.638Z,99917.31
2022-12-18T16:20:46.192Z,99928.13
2022-12-18T16:22:53.160Z,99918.16
2022-12-18T16:24:59.826Z,99913.03
2022-12-18T16:27:05.386Z,99917.16
2022-12-18T16:29:11.007Z,99916.50
2022-12-18T16:31:17.595Z,99914.13
2022-12-18T16:33:22.948Z,99911.78
2022-12-18T16:35:30.977Z,99909.41
2022-12-18T16:37:36.000Z,99906.22
2022-12-18T16:39:42.363Z,99895.41
2022-12-18T16:41:48.443Z,99892.03
2022-12-18T16:43:55.123Z,99897.28
2022-12-18T16:46:02.830Z,99894.25
2022-12-18T16:48:08.891Z,99901.03
2022-12-18T16:50:14.975Z,99891.75
2022-12-18T16:52:23.497Z,99890.19
2022-12-18T16:54:30.455Z,99892.41
2022-12-18T16:56:36.127Z,99878.56
2022-12-18T16:58:41.145Z,99876.44
2022-12-18T17:00:48.030Z,99884.47
2022-12-18T17:02:53.184Z,99877.69
2022-12-18T17:05:00.020Z,99873.16
2022-12-18T17:07:05.064Z,99875.94
2022-12-18T17:09:17.533Z,99871.44
2022-12-18T17:11:22.612Z,99870.41
2022-12-18T17:13:30.291Z,99872.84
2022-12-18T17:15:38.879Z,99866.59
2022-12-18T17:17:44.023Z,99870.97
2022-12-18T17:19:49.333Z,99871.06
2022-12-18T17:21:55.844Z,99870.59
2022-12-18T17:24:03.713Z,99874.81
2022-12-18T17:26:12.029Z,99875.94
2022-12-18T17:28:16.996Z,99872.38
2022-12-18T17:30:22.451Z,99876.38
2022-12-18T17:32:27.551Z,99863.31
2022-12-18T17:34:32.536Z,99868.78
2022-12-18T17:36:39.206Z,99865.63
2022-12-18T17:38:44.999Z,99868.44
2022-12-18T17:40:49.944Z,99860.41
2022-12-18T17:42:58.744Z,99871.28
2022-12-18T17:45:03.724Z,99859.50
2022-12-18T17:47:12.030Z,99864.63
2022-12-18T17:49:17.299Z,99863.84
2022-12-18T17:51:23.024Z,99856.59
2022-12-18T17:53:27.980Z,99867.25
2022-12-18T17:55:33.266Z,99862.31
2022-12-18T17:57:38.278Z,99863.34
2022-12-18T17:59:45.974Z,99870.88
2022-12-18T18:01:51.260Z,99864.53
2022-12-18T18:04:00.531Z,99868.91
2022-12-18T18:06:05.753Z,99866.75
2022-12-18T18:08:10.776Z,99872.34
2022-12-18T18:10:15.902Z,99866.75
2022-12-18T18:12:33.357Z,99862.34
2022-12-18T18:14:38.747Z,99858.22
2022-12-18T18:16:49.516Z,99856.16
2022-12-18T18:18:54.621Z,99851.22
2022-12-18T18:20:59.899Z,99844.72
2022-12-18T18:23:05.795Z,99843.28
2022-12-18T18:25:12.759Z,99837.72
2022-12-18T18:27:18.986Z,99827.06
2022-12-18T18:29:30.323Z,99828.66
2022-12-18T18:31:40.854Z,99826.97
2022-12-18T18:33:49.791Z,99831.13
2022-12-18T18:35:54.997Z,99825.84
2022-12-18T18:38:00.082Z,99818.41
2022-12-18T18:40:05.315Z,99825.00
2022-12-18T18:42:10.856Z,99815.41
2022-12-18T18:44:15.880Z,99800.88
2022-12-18T18:46:20.935Z,99804.78
2022-12-18T18:48:27.343Z,99811.25
2022-12-18T18:50:38.046Z,99805.44
2022-12-18T18:52:43.832Z,99793.16
2022-12-18T18:55:11.646Z,99798.81
2022-12-18T18:57:20.892Z,99806.97
2022-12-18T18:59:31.517Z,99807.81
2022-12-18T19:01:37.273Z,99804.00
2022-12-18T19:03:43.903Z,99809.69
2022-12-18T19:05:59.829Z,99802.16
2022-12-18T19:08:05.106Z,99796.34
2022-12-18T19:10:12.063Z,99795.56
2022-12-18T19:12:38.252Z,99795.56
2022-12-18T19:14:45.618Z,99797.13
2022-12-18T19:16:50.735Z,99795.41
2022-12-18T19:19:01.559Z,99789.59
2022-12-18T19:21:10.265Z,99793.63
2022-12-18T19:23:15.674Z,99791.22
2022-12-18T19:25:20.947Z,99800.22
2022-12-18T19:27:25.941Z,99788.75
2022-12-18T19:29:31.066Z,99785.31
2022-12-18T19:31:37.122Z,99796.72
2022-12-18T19:33:46.175Z,99786.13
2022-12-18T19:35:51.488Z,99784.59
2022-12-18T19:37:59.585Z,99781.63
2022-12-18T19:40:06.087Z,99772.97
2022-12-18T19:42:23.015Z,99783.63
2022-12-18T19:44:30.618Z,99782.00
2022-12-18T19:46:36.207Z,99776.34
2022-12-18T19:48:47.030Z,99779.72
2022-12-18T19:50:52.016Z,99786.78
2022-12-18T19:52:59.699Z,99784.13
2022-12-18T19:55:05.126Z,99774.16
2022-12-18T19:57:11.637Z,99784.00
2022-12-18T19:59:19.029Z,99778.97
2022-12-18T20:01:26.896Z,99780.41
2022-12-18T20:03:33.013Z,99786.13
2022-12-18T20:05:38.825Z,99790.38
2022-12-18T20:07:44.251Z,99792.75
2022-12-18T20:09:59.608Z,99786.03
2022-12-18T20:12:10.303Z,99787.06
2022-12-18T20:14:19.620Z,99782.06
2022-12-18T20:16:28.489Z,99787.78
2022-12-18T20:18:34.984Z,99778.91
2022-12-18T20:20:40.741Z,99771.50
2022-12-18T20:22:45.828Z,99774.16
2022-12-18T20:24:53.373Z,99766.88
2022-12-18T20:26:59.311Z,99768.50
2022-12-18T20:29:04.306Z,99770.78
2022-12-18T20:31:13.259Z,99774.03
2022-12-18T20:33:19.860Z,99772.72
2022-12-18T20:35:28.555Z,99772.72
2022-12-18T20:37:35.009Z,99769.34
2022-12-18T20:39:42.592Z,99757.78
2022-12-18T20:41:51.036Z,99768.06
2022-12-18T20:43:56.079Z,99758.31
2022-12-18T20:46:05.541Z,99743.50
2022-12-18T20:48:11.233Z,99751.94
2022-12-18T20:50:16.251Z,99755.28
2022-12-18T20:52:22.414Z,99758.56
2022-12-18T20:54:30.413Z,99762.88
2022-12-18T20:56:35.447Z,99766.31
2022-12-18T20:58:43.433Z,99766.38
2022-12-18T21:00:48.465Z,99773.00
2022-12-18T21:02:53.605Z,99774.09
2022-12-18T21:04:58.924Z,99762.78
2022-12-18T21:07:03.902Z,99750.31
2022-12-18T21:09:09.437Z,99741.25
2022-12-18T21:11:40.161Z,99746.19
2022-12-18T21:13:47.745Z,99752.72
2022-12-18T21:15:55.621Z,99751.13
2022-12-18T21:18:00.597Z,99752.78
2022-12-18T21:20:05.913Z,99747.84
2022-12-18T21:22:11.168Z,99747.00
2022-12-18T21:24:16.636Z,99757.59
2022-12-18T21:26:24.409Z,99769.00
2022-12-18T21:28:29.481Z,99767.47
2022-12-18T21:30:37.160Z,99775.63
2022-12-18T21:32:42.168Z,99773.13
2022-12-18T21:34:48.357Z,99773.13
2022-12-18T21:36:53.814Z,99763.19
2022-12-18T21:38:59.721Z,99748.41
2022-12-18T21:41:10.104Z,99739.41
2022-12-18T21:43:28.346Z,99737.75
2022-12-18T21:45:35.926Z,99728.34
2022-12-18T21:47:40.927Z,99723.41
2022-12-18T21:49:46.027Z,99731.84
2022-12-18T21:51:52.047Z,99724.38
2022-12-18T21:53:57.062Z,99738.31
2022-12-18T21:56:03.020Z,99733.63
2022-12-18T21:58:08.096Z,99748.44
2022-12-18T22:00:18.438Z,99739.53
2022-12-18T22:02:27.238Z,99741.09
2022-12-18T22:04:32.635Z,99742.63
2022-12-18T22:06:38.183Z,99745.19
2022-12-18T22:08:43.812Z,99740.25
2022-12-18T22:10:49.483Z,99737.03
2022-12-18T22:12:55.025Z,99740.94
2022-12-18T22:15:00.815Z,99740.78
2022-12-18T22:17:05.848Z,99724.44
2022-12-18T22:19:15.420Z,99728.59
2022-12-18T22:21:29.802Z,99730.03
2022-12-18T22:23:35.299Z,99742.38
2022-12-18T22:25:40.630Z,99733.28
2022-12-18T22:28:06.278Z,99729.94
2022-12-18T22:30:14.806Z,99725.09
2022-12-18T22:32:30.879Z,99725.00
2022-12-18T22:34:39.631Z,99723.16
2022-12-18T22:36:47.396Z,99728.25
2022-12-18T22:38:52.370Z,99719.94
2022-12-18T22:40:59.266Z,99717.34
2022-12-18T22:43:04.404Z,99716.44
2022-12-18T22:45:11.226Z,99716.44
2022-12-18T22:47:16.745Z,99718.13
2022-12-18T22:49:24.346Z,99711.75
2022-12-18T22:51:32.113Z,99718.47
2022-12-18T22:53:37.153Z,99721.63
2022-12-18T22:55:42.475Z,99720.00
2022-12-18T22:57:49.110Z,99725.72
2022-12-18T22:59:55.361Z,99721.63
2022-12-18T23:02:00.855Z,99718.47
2022-12-18T23:04:06.064Z,99710.19
2022-12-18T23:06:12.882Z,99710.19
2022-12-18T23:08:21.199Z,99707.84
2022-12-18T23:10:26.460Z,99700.44
2022-12-18T23:12:31.470Z,99698.75
2022-12-18T23:14:38.380Z,99703.84
2022-12-18T23:16:43.769Z,99705.47
2022-12-18T23:18:56.075Z,99703.84
2022-12-18T23:21:01.104Z,99703.16
2022-12-18T23:23:06.433Z,99705.63
2022-12-18T23:25:14.233Z,99693.91
2022-12-18T23:27:19.523Z,99688.34
2022-12-18T23:29:24.520Z,99692.59
2022-12-18T23:31:32.473Z,99677.66
2022-12-18T23:33:37.633Z,99677.63
2022-12-18T23:35:42.673Z,99675.16
2022-12-18T23:37:58.735Z,99674.41
2022-12-18T23:40:05.220Z,99678.66
2022-12-18T23:42:12.931Z,99668.03
2022-12-18T23:44:19.761Z,99668.78
2022-12-18T23:46:27.654Z,99665.47
2022-12-18T23:48:34.774Z,99668.72
2022-12-18T23:50:40.503Z,99668.72
2022-12-18T23:52:45.513Z,99664.44
2022-12-18T23:54:50.844Z,99658.84
2022-12-18T23:56:55.833Z,99669.50
2022-12-18T23:59:03.816Z,99664.44
